sensor_id;sensor_type;location;lat;lon;timestamp;noise_LAeq;noise_LA_min;noise_LA_max;noise_LA01;noise_LA95
43168;Laerm;28773;48.804;9.024;2023-03-01T00:02:01;32.04;30.66;33.32;;
43168;Laerm;28773;48.804;9.024;2023-03-01T00:04:26;32.33;30.65;39.02;;
43168;Laerm;28773;48.804;9.024;2023-03-01T00:06:52;32.31;30.87;41.48;;
43168;Laerm;28773;48.804;9.024;2023-03-01T00:09:17;32.03;30.73;33.25;;
43168;Laerm;28773;48.804;9.024;2023-03-01T00:11:44;32.03;30.70;33.57;;
43168;Laerm;28773;48.804;9.024;2023-03-01T00:14:09;32.03;30.77;33.26;;
43168;Laerm;28773;48.804;9.024;2023-03-01T00:16:36;32.02;30.69;33.25;;
43168;Laerm;28773;48.804;9.024;2023-03-01T00:19:02;31.99;30.66;33.15;;
43168;Laerm;28773;48.804;9.024;2023-03-01T00:21:27;31.99;30.63;33.15;;
43168;Laerm;28773;48.804;9.024;2023-03-01T00:23:53;32.05;30.81;34.86;;
43168;Laerm;28773;48.804;9.024;2023-03-01T00:26:19;31.97;30.72;33.41;;
43168;Laerm;28773;48.804;9.024;2023-03-01T00:28:45;32.02;30.80;33.10;;
43168;Laerm;28773;48.804;9.024;2023-03-01T00:31:13;32.05;30.86;33.46;;
43168;Laerm;28773;48.804;9.024;2023-03-01T00:33:38;32.07;30.75;33.37;;
43168;Laerm;28773;48.804;9.024;2023-03-01T00:36:04;32.06;30.75;33.38;;
43168;Laerm;28773;48.804;9.024;2023-03-01T00:38:29;32.08;30.68;34.32;;
43168;Laerm;28773;48.804;9.024;2023-03-01T00:40:55;32.00;30.56;33.29;;
43168;Laerm;28773;48.804;9.024;2023-03-01T00:43:20;32.08;30.76;35.80;;
43168;Laerm;28773;48.804;9.024;2023-03-01T00:45:45;31.97;30.34;33.37;;
43168;Laerm;28773;48.804;9.024;2023-03-01T00:48:10;31.98;30.67;33.36;;
43168;Laerm;28773;48.804;9.024;2023-03-01T00:50:35;32.09;30.53;36.44;;
43168;Laerm;28773;48.804;9.024;2023-03-01T00:53:00;32.03;30.76;33.27;;
43168;Laerm;28773;48.804;9.024;2023-03-01T00:55:26;32.05;30.81;33.16;;
43168;Laerm;28773;48.804;9.024;2023-03-01T00:57:51;32.12;30.86;33.38;;
43168;Laerm;28773;48.804;9.024;2023-03-01T01:00:16;32.18;31.11;33.43;;
43168;Laerm;28773;48.804;9.024;2023-03-01T01:02:42;32.26;31.04;36.11;;
43168;Laerm;28773;48.804;9.024;2023-03-01T01:05:07;32.19;30.88;33.40;;
43168;Laerm;28773;48.804;9.024;2023-03-01T01:07:32;32.23;31.02;33.38;;
43168;Laerm;28773;48.804;9.024;2023-03-01T01:09:58;32.31;31.03;35.56;;
43168;Laerm;28773;48.804;9.024;2023-03-01T01:12:23;32.22;30.86;33.40;;
43168;Laerm;28773;48.804;9.024;2023-03-01T01:14:48;32.29;30.99;33.53;;
43168;Laerm;28773;48.804;9.024;2023-03-01T01:17:13;32.36;31.10;33.58;;
43168;Laerm;28773;48.804;9.024;2023-03-01T01:19:38;32.40;31.20;33.82;;
43168;Laerm;28773;48.804;9.024;2023-03-01T01:22:03;32.55;31.24;33.67;;
43168;Laerm;28773;48.804;9.024;2023-03-01T01:24:29;32.55;31.24;33.65;;
43168;Laerm;28773;48.804;9.024;2023-03-01T01:26:54;32.71;31.28;37.85;;
43168;Laerm;28773;48.804;9.024;2023-03-01T01:29:19;32.50;31.07;33.84;;
43168;Laerm;28773;48.804;9.024;2023-03-01T01:31:44;32.53;31.33;33.72;;
43168;Laerm;28773;48.804;9.024;2023-03-01T01:34:13;32.61;31.46;33.76;;
43168;Laerm;28773;48.804;9.024;2023-03-01T01:36:38;32.74;31.57;34.03;;
43168;Laerm;28773;48.804;9.024;2023-03-01T01:39:03;32.69;31.42;34.40;;
43168;Laerm;28773;48.804;9.024;2023-03-01T01:41:29;32.53;31.25;33.64;;
43168;Laerm;28773;48.804;9.024;2023-03-01T01:46:41;32.59;31.36;33.84;;
43168;Laerm;28773;48.804;9.024;2023-03-01T01:49:15;32.52;31.27;33.81;;
43168;Laerm;28773;48.804;9.024;2023-03-01T01:51:42;32.52;31.31;33.75;;
43168;Laerm;28773;48.804;9.024;2023-03-01T01:54:12;32.62;31.32;35.75;;
43168;Laerm;28773;48.804;9.024;2023-03-01T01:56:39;32.65;31.46;33.79;;
43168;Laerm;28773;48.804;9.024;2023-03-01T01:59:06;32.88;31.65;33.97;;
43168;Laerm;28773;48.804;9.024;2023-03-01T02:01:31;32.96;31.80;33.95;;
43168;Laerm;28773;48.804;9.024;2023-03-01T02:03:56;33.01;31.79;34.06;;
43168;Laerm;28773;48.804;9.024;2023-03-01T02:06:25;33.23;32.04;34.22;;
43168;Laerm;28773;48.804;9.024;2023-03-01T02:08:53;33.34;32.17;34.39;;
43168;Laerm;28773;48.804;9.024;2023-03-01T02:11:20;33.48;32.33;35.88;;
43168;Laerm;28773;48.804;9.024;2023-03-01T02:13:46;33.38;32.22;34.44;;
43168;Laerm;28773;48.804;9.024;2023-03-01T02:16:12;33.35;32.04;34.43;;
43168;Laerm;28773;48.804;9.024;2023-03-01T02:18:39;33.89;32.67;39.40;;
43168;Laerm;28773;48.804;9.024;2023-03-01T02:23:30;34.95;33.72;36.15;;
43168;Laerm;28773;48.804;9.024;2023-03-01T02:28:40;36.62;35.30;38.43;;
43168;Laerm;28773;48.804;9.024;2023-03-01T02:31:06;36.01;35.00;37.10;;
43168;Laerm;28773;48.804;9.024;2023-03-01T02:33:50;36.13;35.04;37.04;;
43168;Laerm;28773;48.804;9.024;2023-03-01T02:36:17;36.36;35.31;37.25;;
43168;Laerm;28773;48.804;9.024;2023-03-01T02:38:43;36.48;35.58;37.70;;
43168;Laerm;28773;48.804;9.024;2023-03-01T02:41:09;36.53;35.53;37.37;;
43168;Laerm;28773;48.804;9.024;2023-03-01T02:43:35;36.50;35.53;37.43;;
43168;Laerm;28773;48.804;9.024;2023-03-01T02:46:05;36.17;35.15;38.45;;
43168;Laerm;28773;48.804;9.024;2023-03-01T02:48:45;35.90;34.71;36.88;;
43168;Laerm;28773;48.804;9.024;2023-03-01T02:51:16;35.28;34.04;38.23;;
43168;Laerm;28773;48.804;9.024;2023-03-01T02:56:08;33.79;32.25;34.87;;
43168;Laerm;28773;48.804;9.024;2023-03-01T02:58:37;33.27;31.95;34.52;;
43168;Laerm;28773;48.804;9.024;2023-03-01T03:01:10;32.91;31.71;34.07;;
43168;Laerm;28773;48.804;9.024;2023-03-01T03:03:35;32.66;31.55;33.87;;
43168;Laerm;28773;48.804;9.024;2023-03-01T03:06:00;32.47;31.32;33.63;;
43168;Laerm;28773;48.804;9.024;2023-03-01T03:08:25;32.34;31.09;33.49;;
43168;Laerm;28773;48.804;9.024;2023-03-01T03:10:50;32.33;30.94;34.58;;
43168;Laerm;28773;48.804;9.024;2023-03-01T03:13:15;32.19;30.94;33.42;;
43168;Laerm;28773;48.804;9.024;2023-03-01T03:15:41;32.28;30.86;37.44;;
43168;Laerm;28773;48.804;9.024;2023-03-01T03:18:08;32.10;30.88;33.43;;
43168;Laerm;28773;48.804;9.024;2023-03-01T03:20:34;32.09;30.92;33.35;;
43168;Laerm;28773;48.804;9.024;2023-03-01T03:23:01;32.24;30.74;37.29;;
43168;Laerm;28773;48.804;9.024;2023-03-01T03:25:26;32.17;30.77;35.37;;
43168;Laerm;28773;48.804;9.024;2023-03-01T03:27:52;32.00;30.74;33.23;;
43168;Laerm;28773;48.804;9.024;2023-03-01T03:30:27;31.98;30.72;33.22;;
43168;Laerm;28773;48.804;9.024;2023-03-01T03:32:53;32.04;30.64;36.02;;
43168;Laerm;28773;48.804;9.024;2023-03-01T03:35:28;31.96;30.77;33.13;;
43168;Laerm;28773;48.804;9.024;2023-03-01T03:37:58;32.05;30.45;37.03;;
43168;Laerm;28773;48.804;9.024;2023-03-01T03:40:35;31.91;30.54;33.03;;
43168;Laerm;28773;48.804;9.024;2023-03-01T03:43:01;31.93;30.77;35.11;;
43168;Laerm;28773;48.804;9.024;2023-03-01T03:45:26;32.12;30.39;37.60;;
43168;Laerm;28773;48.804;9.024;2023-03-01T03:47:52;31.86;30.72;33.19;;
43168;Laerm;28773;48.804;9.024;2023-03-01T03:50:17;31.87;30.61;36.15;;
43168;Laerm;28773;48.804;9.024;2023-03-01T03:52:42;32.14;30.73;38.08;;
43168;Laerm;28773;48.804;9.024;2023-03-01T03:55:09;31.95;30.62;37.54;;
43168;Laerm;28773;48.804;9.024;2023-03-01T03:57:39;32.10;30.58;37.77;;
43168;Laerm;28773;48.804;9.024;2023-03-01T04:00:05;32.03;30.54;38.07;;
43168;Laerm;28773;48.804;9.024;2023-03-01T04:02:30;31.80;30.53;33.00;;
43168;Laerm;28773;48.804;9.024;2023-03-01T04:04:56;31.93;30.35;35.95;;
43168;Laerm;28773;48.804;9.024;2023-03-01T04:07:21;31.90;30.52;37.84;;
43168;Laerm;28773;48.804;9.024;2023-03-01T04:09:46;31.93;30.44;36.67;;
43168;Laerm;28773;48.804;9.024;2023-03-01T04:12:11;31.99;30.42;37.55;;
43168;Laerm;28773;48.804;9.024;2023-03-01T04:14:36;32.02;30.49;37.49;;
43168;Laerm;28773;48.804;9.024;2023-03-01T04:17:02;32.00;30.43;35.74;;
43168;Laerm;28773;48.804;9.024;2023-03-01T04:19:30;31.89;30.48;37.88;;
43168;Laerm;28773;48.804;9.024;2023-03-01T04:22:04;31.74;30.47;32.96;;
43168;Laerm;28773;48.804;9.024;2023-03-01T04:24:34;31.98;30.46;37.35;;
43168;Laerm;28773;48.804;9.024;2023-03-01T04:26:59;32.27;30.41;38.48;;
43168;Laerm;28773;48.804;9.024;2023-03-01T04:29:24;32.00;30.47;39.60;;
43168;Laerm;28773;48.804;9.024;2023-03-01T04:31:49;31.71;30.45;32.85;;
43168;Laerm;28773;48.804;9.024;2023-03-01T04:34:15;32.23;30.51;36.92;;
43168;Laerm;28773;48.804;9.024;2023-03-01T04:36:40;31.89;30.24;36.62;;
43168;Laerm;28773;48.804;9.024;2023-03-01T04:39:05;31.81;30.46;36.62;;
43168;Laerm;28773;48.804;9.024;2023-03-01T04:41:37;32.25;30.53;37.68;;
43168;Laerm;28773;48.804;9.024;2023-03-01T04:44:03;32.24;30.62;37.49;;
43168;Laerm;28773;48.804;9.024;2023-03-01T04:46:29;32.23;30.41;37.53;;
43168;Laerm;28773;48.804;9.024;2023-03-01T04:48:54;32.07;30.55;37.91;;
43168;Laerm;28773;48.804;9.024;2023-03-01T04:51:19;32.41;30.31;38.23;;
43168;Laerm;28773;48.804;9.024;2023-03-01T04:53:45;32.61;30.41;42.94;;
43168;Laerm;28773;48.804;9.024;2023-03-01T04:56:10;32.44;30.42;39.08;;
43168;Laerm;28773;48.804;9.024;2023-03-01T04:58:36;32.55;30.43;38.29;;
43168;Laerm;28773;48.804;9.024;2023-03-01T05:01:01;31.93;30.48;35.41;;
43168;Laerm;28773;48.804;9.024;2023-03-01T05:03:26;32.40;30.43;39.07;;
43168;Laerm;28773;48.804;9.024;2023-03-01T05:05:53;32.20;30.48;39.22;;
43168;Laerm;28773;48.804;9.024;2023-03-01T05:08:18;32.25;30.42;37.48;;
43168;Laerm;28773;48.804;9.024;2023-03-01T05:10:44;32.83;30.43;38.21;;
43168;Laerm;28773;48.804;9.024;2023-03-01T05:13:11;31.90;30.44;36.64;;
43168;Laerm;28773;48.804;9.024;2023-03-01T05:15:38;32.38;30.62;39.84;;
43168;Laerm;28773;48.804;9.024;2023-03-01T05:18:03;32.16;30.45;37.74;;
43168;Laerm;28773;48.804;9.024;2023-03-01T05:20:29;32.98;30.51;39.67;;
43168;Laerm;28773;48.804;9.024;2023-03-01T05:22:55;32.51;30.46;37.71;;
43168;Laerm;28773;48.804;9.024;2023-03-01T05:25:21;32.91;30.65;39.22;;
43168;Laerm;28773;48.804;9.024;2023-03-01T05:27:46;33.13;30.58;39.87;;
43168;Laerm;28773;48.804;9.024;2023-03-01T05:30:11;32.70;30.32;39.14;;
43168;Laerm;28773;48.804;9.024;2023-03-01T05:32:44;32.71;30.52;38.50;;
43168;Laerm;28773;48.804;9.024;2023-03-01T05:35:13;33.22;30.52;38.38;;
43168;Laerm;28773;48.804;9.024;2023-03-01T05:37:40;32.20;30.45;37.41;;
43168;Laerm;28773;48.804;9.024;2023-03-01T05:40:06;33.00;30.69;41.50;;
43168;Laerm;28773;48.804;9.024;2023-03-01T05:42:40;33.27;30.54;37.96;;
43168;Laerm;28773;48.804;9.024;2023-03-01T05:45:05;33.28;30.36;39.06;;
43168;Laerm;28773;48.804;9.024;2023-03-01T05:47:34;33.80;30.59;45.83;;
43168;Laerm;28773;48.804;9.024;2023-03-01T05:50:00;32.70;30.62;41.33;;
43168;Laerm;28773;48.804;9.024;2023-03-01T05:52:25;33.23;30.67;39.81;;
43168;Laerm;28773;48.804;9.024;2023-03-01T05:54:50;32.87;30.40;37.95;;
43168;Laerm;28773;48.804;9.024;2023-03-01T05:57:15;32.75;30.48;38.92;;
43168;Laerm;28773;48.804;9.024;2023-03-01T05:59:41;33.04;30.48;39.55;;
43168;Laerm;28773;48.804;9.024;2023-03-01T06:02:06;33.21;30.35;38.58;;
43168;Laerm;28773;48.804;9.024;2023-03-01T06:04:31;33.00;30.47;37.98;;
43168;Laerm;28773;48.804;9.024;2023-03-01T06:06:56;34.12;30.81;39.70;;
43168;Laerm;28773;48.804;9.024;2023-03-01T06:09:21;33.18;30.58;39.16;;
43168;Laerm;28773;48.804;9.024;2023-03-01T06:11:46;33.15;30.60;37.48;;
43168;Laerm;28773;48.804;9.024;2023-03-01T06:14:12;33.66;30.48;40.45;;
43168;Laerm;28773;48.804;9.024;2023-03-01T06:16:39;33.61;30.61;39.41;;
43168;Laerm;28773;48.804;9.024;2023-03-01T06:19:04;34.09;30.67;38.83;;
43168;Laerm;28773;48.804;9.024;2023-03-01T06:21:29;33.61;30.65;39.03;;
43168;Laerm;28773;48.804;9.024;2023-03-01T06:23:55;33.55;30.78;39.99;;
43168;Laerm;28773;48.804;9.024;2023-03-01T06:26:20;34.02;30.82;40.31;;
43168;Laerm;28773;48.804;9.024;2023-03-01T06:28:45;33.56;30.56;39.91;;
43168;Laerm;28773;48.804;9.024;2023-03-01T06:31:11;33.99;30.58;40.52;;
43168;Laerm;28773;48.804;9.024;2023-03-01T06:33:36;33.51;30.79;40.79;;
43168;Laerm;28773;48.804;9.024;2023-03-01T06:36:01;33.84;30.61;39.35;;
43168;Laerm;28773;48.804;9.024;2023-03-01T06:38:26;33.50;30.66;37.93;;
43168;Laerm;28773;48.804;9.024;2023-03-01T06:40:52;33.49;30.77;42.37;;
43168;Laerm;28773;48.804;9.024;2023-03-01T06:43:19;33.56;30.76;39.15;;
43168;Laerm;28773;48.804;9.024;2023-03-01T06:45:44;33.38;30.74;39.04;;
43168;Laerm;28773;48.804;9.024;2023-03-01T06:48:10;32.92;30.47;38.33;;
43168;Laerm;28773;48.804;9.024;2023-03-01T06:50:35;33.73;30.78;42.03;;
43168;Laerm;28773;48.804;9.024;2023-03-01T06:53:00;33.32;30.26;39.31;;
43168;Laerm;28773;48.804;9.024;2023-03-01T06:55:26;33.56;30.63;44.96;;
43168;Laerm;28773;48.804;9.024;2023-03-01T06:57:55;33.36;30.65;39.29;;
43168;Laerm;28773;48.804;9.024;2023-03-01T07:00:21;33.50;30.54;39.10;;
43168;Laerm;28773;48.804;9.024;2023-03-01T07:02:46;33.61;30.78;38.61;;
43168;Laerm;28773;48.804;9.024;2023-03-01T07:05:11;34.33;30.83;40.50;;
43168;Laerm;28773;48.804;9.024;2023-03-01T07:07:36;33.47;30.74;39.64;;
43168;Laerm;28773;48.804;9.024;2023-03-01T07:10:02;33.74;30.74;37.63;;
43168;Laerm;28773;48.804;9.024;2023-03-01T07:12:27;33.76;30.81;39.78;;
43168;Laerm;28773;48.804;9.024;2023-03-01T07:14:52;33.37;30.54;40.58;;
43168;Laerm;28773;48.804;9.024;2023-03-01T07:17:17;33.84;30.43;39.13;;
43168;Laerm;28773;48.804;9.024;2023-03-01T07:19:43;33.23;30.53;39.19;;
43168;Laerm;28773;48.804;9.024;2023-03-01T07:22:09;33.40;30.63;38.35;;
43168;Laerm;28773;48.804;9.024;2023-03-01T07:24:35;33.02;30.53;40.84;;
43168;Laerm;28773;48.804;9.024;2023-03-01T07:27:00;33.18;30.56;41.75;;
43168;Laerm;28773;48.804;9.024;2023-03-01T07:29:25;33.93;30.65;41.22;;
43168;Laerm;28773;48.804;9.024;2023-03-01T07:31:50;33.57;30.64;39.49;;
43168;Laerm;28773;48.804;9.024;2023-03-01T07:34:15;33.95;30.51;46.47;;
43168;Laerm;28773;48.804;9.024;2023-03-01T07:36:41;33.31;30.48;38.93;;
43168;Laerm;28773;48.804;9.024;2023-03-01T07:39:08;33.25;30.73;40.37;;
43168;Laerm;28773;48.804;9.024;2023-03-01T07:41:33;33.41;30.73;39.97;;
43168;Laerm;28773;48.804;9.024;2023-03-01T07:43:58;33.08;30.73;39.12;;
43168;Laerm;28773;48.804;9.024;2023-03-01T07:46:23;33.95;30.74;39.52;;
43168;Laerm;28773;48.804;9.024;2023-03-01T07:48:48;33.17;30.66;39.19;;
43168;Laerm;28773;48.804;9.024;2023-03-01T07:51:14;33.08;30.69;37.38;;
43168;Laerm;28773;48.804;9.024;2023-03-01T07:53:39;32.98;30.55;40.55;;
43168;Laerm;28773;48.804;9.024;2023-03-01T07:56:06;34.10;30.38;45.61;;
43168;Laerm;28773;48.804;9.024;2023-03-01T07:58:35;33.34;30.71;39.38;;
43168;Laerm;28773;48.804;9.024;2023-03-01T08:01:01;33.25;30.57;39.15;;
43168;Laerm;28773;48.804;9.024;2023-03-01T08:03:27;32.48;30.54;37.56;;
43168;Laerm;28773;48.804;9.024;2023-03-01T08:05:52;34.05;30.63;46.45;;
43168;Laerm;28773;48.804;9.024;2023-03-01T08:08:18;32.90;30.62;39.85;;
43168;Laerm;28773;48.804;9.024;2023-03-01T08:10:43;32.98;30.36;39.92;;
43168;Laerm;28773;48.804;9.024;2023-03-01T08:13:08;33.43;30.65;39.81;;
43168;Laerm;28773;48.804;9.024;2023-03-01T08:15:33;32.91;30.51;38.60;;
43168;Laerm;28773;48.804;9.024;2023-03-01T08:17:58;33.21;30.63;39.42;;
43168;Laerm;28773;48.804;9.024;2023-03-01T08:20:23;33.48;30.55;41.07;;
43168;Laerm;28773;48.804;9.024;2023-03-01T08:22:48;32.82;30.49;40.64;;
43168;Laerm;28773;48.804;9.024;2023-03-01T08:25:14;32.59;30.52;39.01;;
43168;Laerm;28773;48.804;9.024;2023-03-01T08:27:39;33.01;30.59;39.09;;
43168;Laerm;28773;48.804;9.024;2023-03-01T08:30:04;32.71;30.23;38.22;;
43168;Laerm;28773;48.804;9.024;2023-03-01T08:32:32;32.74;30.27;38.74;;
43168;Laerm;28773;48.804;9.024;2023-03-01T08:34:59;32.79;30.59;37.63;;
43168;Laerm;28773;48.804;9.024;2023-03-01T08:37:24;32.53;30.46;38.43;;
43168;Laerm;28773;48.804;9.024;2023-03-01T08:39:50;33.27;30.29;41.67;;
43168;Laerm;28773;48.804;9.024;2023-03-01T08:42:15;32.77;30.28;38.66;;
43168;Laerm;28773;48.804;9.024;2023-03-01T08:44:40;32.80;30.51;42.01;;
43168;Laerm;28773;48.804;9.024;2023-03-01T08:47:05;32.50;30.22;38.82;;
43168;Laerm;28773;48.804;9.024;2023-03-01T08:49:30;32.64;30.44;39.09;;
43168;Laerm;28773;48.804;9.024;2023-03-01T08:51:57;32.86;30.45;39.82;;
43168;Laerm;28773;48.804;9.024;2023-03-01T08:54:22;32.53;30.52;37.72;;
43168;Laerm;28773;48.804;9.024;2023-03-01T08:56:48;32.43;30.41;36.78;;
43168;Laerm;28773;48.804;9.024;2023-03-01T08:59:14;32.50;30.30;37.39;;
43168;Laerm;28773;48.804;9.024;2023-03-01T09:01:40;32.98;30.39;42.60;;
43168;Laerm;28773;48.804;9.024;2023-03-01T09:04:08;32.25;30.16;39.83;;
43168;Laerm;28773;48.804;9.024;2023-03-01T09:06:33;33.02;30.47;38.56;;
43168;Laerm;28773;48.804;9.024;2023-03-01T09:08:59;32.82;30.37;39.02;;
43168;Laerm;28773;48.804;9.024;2023-03-01T09:11:24;33.40;30.31;41.79;;
43168;Laerm;28773;48.804;9.024;2023-03-01T09:13:49;31.90;30.17;37.43;;
43168;Laerm;28773;48.804;9.024;2023-03-01T09:16:15;32.95;30.01;38.69;;
43168;Laerm;28773;48.804;9.024;2023-03-01T09:18:42;32.73;30.06;37.25;;
43168;Laerm;28773;48.804;9.024;2023-03-01T09:21:08;32.32;30.14;38.74;;
43168;Laerm;28773;48.804;9.024;2023-03-01T09:23:34;32.52;30.06;41.54;;
43168;Laerm;28773;48.804;9.024;2023-03-01T09:26:01;32.61;29.88;38.61;;
43168;Laerm;28773;48.804;9.024;2023-03-01T09:28:26;32.98;30.06;38.39;;
43168;Laerm;28773;48.804;9.024;2023-03-01T09:30:51;32.89;30.05;38.72;;
43168;Laerm;28773;48.804;9.024;2023-03-01T09:33:17;32.47;29.90;37.21;;
43168;Laerm;28773;48.804;9.024;2023-03-01T09:35:42;31.98;29.98;37.34;;
43168;Laerm;28773;48.804;9.024;2023-03-01T09:38:12;32.70;29.98;40.81;;
43168;Laerm;28773;48.804;9.024;2023-03-01T09:40:41;32.69;30.02;40.24;;
43168;Laerm;28773;48.804;9.024;2023-03-01T09:43:08;33.48;30.01;46.62;;
43168;Laerm;28773;48.804;9.024;2023-03-01T09:45:39;32.70;30.03;39.67;;
43168;Laerm;28773;48.804;9.024;2023-03-01T09:48:06;32.75;29.99;38.80;;
43168;Laerm;28773;48.804;9.024;2023-03-01T09:50:38;33.31;29.93;38.81;;
43168;Laerm;28773;48.804;9.024;2023-03-01T09:53:05;32.25;30.14;37.39;;
43168;Laerm;28773;48.804;9.024;2023-03-01T09:55:46;32.65;30.11;38.12;;
43168;Laerm;28773;48.804;9.024;2023-03-01T10:00:44;32.37;30.09;38.40;;
43168;Laerm;28773;48.804;9.024;2023-03-01T10:03:14;32.42;30.01;39.20;;
43168;Laerm;28773;48.804;9.024;2023-03-01T10:08:19;33.19;30.16;43.40;;
43168;Laerm;28773;48.804;9.024;2023-03-01T10:10:49;32.67;29.94;38.44;;
43168;Laerm;28773;48.804;9.024;2023-03-01T10:13:19;31.80;29.97;36.99;;
43168;Laerm;28773;48.804;9.024;2023-03-01T10:15:50;32.44;29.91;37.28;;
43168;Laerm;28773;48.804;9.024;2023-03-01T10:18:20;32.47;30.02;38.14;;
43168;Laerm;28773;48.804;9.024;2023-03-01T10:20:48;33.08;30.16;40.71;;
43168;Laerm;28773;48.804;9.024;2023-03-01T10:23:16;32.98;30.30;38.49;;
43168;Laerm;28773;48.804;9.024;2023-03-01T10:28:27;33.36;30.22;40.00;;
43168;Laerm;28773;48.804;9.024;2023-03-01T10:30:55;32.61;29.93;42.61;;
43168;Laerm;28773;48.804;9.024;2023-03-01T10:33:29;33.07;30.12;40.50;;
43168;Laerm;28773;48.804;9.024;2023-03-01T10:35:55;32.72;29.91;40.04;;
43168;Laerm;28773;48.804;9.024;2023-03-01T10:38:20;32.25;30.09;39.57;;
43168;Laerm;28773;48.804;9.024;2023-03-01T10:41:05;32.40;29.98;39.72;;
43168;Laerm;28773;48.804;9.024;2023-03-01T10:43:32;33.23;30.03;45.66;;
43168;Laerm;28773;48.804;9.024;2023-03-01T10:46:15;32.95;30.15;44.96;;
43168;Laerm;28773;48.804;9.024;2023-03-01T10:48:46;33.33;30.09;39.48;;
43168;Laerm;28773;48.804;9.024;2023-03-01T10:51:30;32.85;29.99;40.93;;
43168;Laerm;28773;48.804;9.024;2023-03-01T10:53:55;32.98;29.99;43.30;;
43168;Laerm;28773;48.804;9.024;2023-03-01T10:56:20;32.82;30.23;41.07;;
43168;Laerm;28773;48.804;9.024;2023-03-01T10:58:59;32.70;30.10;38.22;;
43168;Laerm;28773;48.804;9.024;2023-03-01T11:01:29;32.45;30.05;38.92;;
43168;Laerm;28773;48.804;9.024;2023-03-01T11:06:32;32.86;29.82;41.37;;
43168;Laerm;28773;48.804;9.024;2023-03-01T11:09:01;32.69;29.87;40.19;;
43168;Laerm;28773;48.804;9.024;2023-03-01T11:11:38;33.18;30.22;38.77;;
43168;Laerm;28773;48.804;9.024;2023-03-01T11:14:07;32.32;29.96;37.51;;
43168;Laerm;28773;48.804;9.024;2023-03-01T11:16:37;32.88;30.07;42.63;;
43168;Laerm;28773;48.804;9.024;2023-03-01T11:21:36;33.10;29.60;39.63;;
43168;Laerm;28773;48.804;9.024;2023-03-01T11:24:03;33.62;30.06;40.91;;
43168;Laerm;28773;48.804;9.024;2023-03-01T11:26:29;32.34;29.83;38.90;;
43168;Laerm;28773;48.804;9.024;2023-03-01T11:28:56;32.54;29.93;39.33;;
43168;Laerm;28773;48.804;9.024;2023-03-01T11:31:23;32.43;30.10;41.14;;
43168;Laerm;28773;48.804;9.024;2023-03-01T11:39:02;32.24;29.98;38.23;;
43168;Laerm;28773;48.804;9.024;2023-03-01T11:41:29;32.57;29.95;40.90;;
43168;Laerm;28773;48.804;9.024;2023-03-01T11:43:57;34.01;29.81;48.84;;
43168;Laerm;28773;48.804;9.024;2023-03-01T11:46:32;32.72;29.84;40.17;;
43168;Laerm;28773;48.804;9.024;2023-03-01T11:57:26;32.33;29.96;38.88;;
43168;Laerm;28773;48.804;9.024;2023-03-01T12:02:43;32.81;29.88;40.66;;
43168;Laerm;28773;48.804;9.024;2023-03-01T12:10:18;33.12;30.01;38.37;;
43168;Laerm;28773;48.804;9.024;2023-03-01T12:13:06;32.55;29.80;39.86;;
43168;Laerm;28773;48.804;9.024;2023-03-01T12:26:01;32.98;29.86;41.41;;
43168;Laerm;28773;48.804;9.024;2023-03-01T12:36:15;32.86;29.99;38.99;;
43168;Laerm;28773;48.804;9.024;2023-03-01T12:38:49;32.94;29.73;40.56;;
43168;Laerm;28773;48.804;9.024;2023-03-01T12:52:14;32.80;29.79;41.16;;
43168;Laerm;28773;48.804;9.024;2023-03-01T12:54:43;33.52;29.98;39.26;;
43168;Laerm;28773;48.804;9.024;2023-03-01T12:57:15;33.18;30.03;45.27;;
43168;Laerm;28773;48.804;9.024;2023-03-01T13:00:00;32.77;29.88;38.65;;
43168;Laerm;28773;48.804;9.024;2023-03-01T13:02:57;33.28;29.87;39.63;;
43168;Laerm;28773;48.804;9.024;2023-03-01T13:05:24;33.49;29.99;40.92;;
43168;Laerm;28773;48.804;9.024;2023-03-01T13:13:11;33.23;30.00;40.67;;
43168;Laerm;28773;48.804;9.024;2023-03-01T13:15:40;33.23;29.91;39.67;;
43168;Laerm;28773;48.804;9.024;2023-03-01T13:23:12;33.10;29.87;41.83;;
43168;Laerm;28773;48.804;9.024;2023-03-01T13:30:56;32.81;29.76;38.83;;
43168;Laerm;28773;48.804;9.024;2023-03-01T13:35:56;33.40;29.49;40.65;;
43168;Laerm;28773;48.804;9.024;2023-03-01T13:41:06;32.73;29.66;41.74;;
43168;Laerm;28773;48.804;9.024;2023-03-01T13:43:33;32.51;29.81;39.86;;
43168;Laerm;28773;48.804;9.024;2023-03-01T13:46:00;32.96;29.88;38.64;;
43168;Laerm;28773;48.804;9.024;2023-03-01T13:48:28;32.53;29.85;40.12;;
43168;Laerm;28773;48.804;9.024;2023-03-01T13:51:07;32.76;29.88;38.81;;
43168;Laerm;28773;48.804;9.024;2023-03-01T13:53:35;32.77;29.89;40.90;;
43168;Laerm;28773;48.804;9.024;2023-03-01T13:56:07;32.95;29.85;39.96;;
43168;Laerm;28773;48.804;9.024;2023-03-01T13:58:43;32.67;29.85;38.85;;
43168;Laerm;28773;48.804;9.024;2023-03-01T14:03:49;33.31;29.87;40.72;;
43168;Laerm;28773;48.804;9.024;2023-03-01T14:06:15;33.27;29.75;39.72;;
43168;Laerm;28773;48.804;9.024;2023-03-01T14:08:43;33.16;29.83;40.86;;
43168;Laerm;28773;48.804;9.024;2023-03-01T14:16:12;32.16;29.73;37.56;;
43168;Laerm;28773;48.804;9.024;2023-03-01T14:18:46;32.66;29.87;38.48;;
43168;Laerm;28773;48.804;9.024;2023-03-01T14:21:16;33.93;29.99;46.50;;
43168;Laerm;28773;48.804;9.024;2023-03-01T14:23:42;32.70;29.77;40.72;;
43168;Laerm;28773;48.804;9.024;2023-03-01T14:26:07;33.10;29.88;44.78;;
43168;Laerm;28773;48.804;9.024;2023-03-01T14:28:33;33.36;29.83;43.08;;
43168;Laerm;28773;48.804;9.024;2023-03-01T14:31:02;33.32;29.92;39.35;;
43168;Laerm;28773;48.804;9.024;2023-03-01T14:33:28;33.39;29.72;42.29;;
43168;Laerm;28773;48.804;9.024;2023-03-01T14:36:01;33.52;29.96;40.60;;
43168;Laerm;28773;48.804;9.024;2023-03-01T14:38:31;33.88;30.08;42.09;;
43168;Laerm;28773;48.804;9.024;2023-03-01T14:40:57;33.21;29.95;43.43;;
43168;Laerm;28773;48.804;9.024;2023-03-01T14:43:23;33.80;30.00;45.56;;
43168;Laerm;28773;48.804;9.024;2023-03-01T14:45:51;33.49;29.89;39.90;;
43168;Laerm;28773;48.804;9.024;2023-03-01T14:48:16;33.86;30.12;41.32;;
43168;Laerm;28773;48.804;9.024;2023-03-01T14:50:42;34.24;30.04;40.36;;
43168;Laerm;28773;48.804;9.024;2023-03-01T14:53:13;33.10;29.87;39.01;;
43168;Laerm;28773;48.804;9.024;2023-03-01T14:55:41;33.73;29.88;40.37;;
43168;Laerm;28773;48.804;9.024;2023-03-01T14:58:13;35.18;30.14;44.37;;
43168;Laerm;28773;48.804;9.024;2023-03-01T15:00:39;33.03;29.59;38.83;;
43168;Laerm;28773;48.804;9.024;2023-03-01T15:03:12;33.36;29.97;38.92;;
43168;Laerm;28773;48.804;9.024;2023-03-01T15:05:39;34.28;29.98;40.88;;
43168;Laerm;28773;48.804;9.024;2023-03-01T15:08:05;33.26;30.08;39.47;;
43168;Laerm;28773;48.804;9.024;2023-03-01T15:10:34;32.91;29.68;38.83;;
43168;Laerm;28773;48.804;9.024;2023-03-01T15:13:10;33.50;29.78;40.22;;
43168;Laerm;28773;48.804;9.024;2023-03-01T15:15:36;33.73;29.87;41.80;;
43168;Laerm;28773;48.804;9.024;2023-03-01T15:18:11;33.27;29.79;41.23;;
43168;Laerm;28773;48.804;9.024;2023-03-01T15:20:38;33.30;29.82;41.17;;
43168;Laerm;28773;48.804;9.024;2023-03-01T15:23:03;32.99;29.91;40.92;;
43168;Laerm;28773;48.804;9.024;2023-03-01T15:25:29;33.45;29.94;41.55;;
43168;Laerm;28773;48.804;9.024;2023-03-01T15:27:56;33.62;29.95;41.48;;